createdAt,value
2022-11-21T00:00:43.149Z,99547.34
2022-11-21T00:01:41.844Z,99541.91
2022-11-21T00:02:41.771Z,99549.08
2022-11-21T00:03:41.789Z,99542.05
2022-11-21T00:04:41.799Z,99545.62
2022-11-21T00:05:43.120Z,99548.39
2022-11-21T00:06:41.852Z,99541.73
2022-11-21T00:07:41.923Z,99549
2022-11-21T00:08:41.860Z,99546.2
2022-11-21T00:09:41.871Z,99542.6
2022-11-21T00:10:42.405Z,99540.14
2022-11-21T00:11:41.907Z,99537.91
2022-11-21T00:12:41.952Z,99538.88
2022-11-21T00:13:42.317Z,99537.42
2022-11-21T00:14:42.031Z,99537.89
2022-11-21T00:15:42.013Z,99537.91
2022-11-21T00:16:41.987Z,99534.78
2022-11-21T00:17:42.074Z,99533.25
2022-11-21T00:18:42.502Z,99535.61
2022-11-21T00:19:42.042Z,99534.2
2022-11-21T00:20:42.484Z,99531.88
2022-11-21T00:21:42.066Z,99533.28
2022-11-21T00:22:42.493Z,99534.19
2022-11-21T00:23:42.736Z,99534.84
2022-11-21T00:24:42.148Z,99536.58
2022-11-21T00:25:42.150Z,99533.27
2022-11-21T00:26:42.177Z,99531.75
2022-11-21T00:27:42.567Z,99531.41
2022-11-21T00:28:42.183Z,99527.46
2022-11-21T00:29:42.181Z,99529.23
2022-11-21T00:30:42.205Z,99531
2022-11-21T00:31:42.225Z,99529.08
2022-11-21T00:32:42.400Z,99528.97
2022-11-21T00:33:42.271Z,99531.77
2022-11-21T00:34:42.280Z,99535.42
2022-11-21T00:35:42.273Z,99535.53
2022-11-21T00:36:42.461Z,99530.75
2022-11-21T00:37:42.668Z,99534.38
2022-11-21T00:38:42.352Z,99536.84
2022-11-21T00:39:42.496Z,99537.7
2022-11-21T00:40:43.279Z,99535.32
2022-11-21T00:41:42.393Z,99534.45
2022-11-21T00:42:42.438Z,99529.73
2022-11-21T00:43:42.489Z,99530.38
2022-11-21T00:44:42.480Z,99524.5
2022-11-21T00:45:42.443Z,99521.48
2022-11-21T00:46:42.482Z,99524.3
2022-11-21T00:47:42.488Z,99526.14
2022-11-21T00:48:42.528Z,99516.88
2022-11-21T00:49:42.680Z,99510.84
2022-11-21T00:50:42.560Z,99514.58
2022-11-21T00:51:42.567Z,99516.02
2022-11-21T00:52:42.606Z,99516.61
2022-11-21T00:53:42.648Z,99513.92
2022-11-21T00:54:42.625Z,99516.29
2022-11-21T00:55:42.645Z,99511.82
2022-11-21T00:56:42.740Z,99513.03
2022-11-21T00:57:42.657Z,99514.83
2022-11-21T00:58:42.684Z,99509.2
2022-11-21T00:59:42.694Z,99511.97
2022-11-21T01:00:42.869Z,99509.98
2022-11-21T01:01:42.733Z,99508.84
2022-11-21T01:02:42.753Z,99510.61
2022-11-21T01:03:43.030Z,99507.72
2022-11-21T01:04:42.874Z,99511.18
2022-11-21T01:05:42.876Z,99511.57
2022-11-21T01:06:42.830Z,99514.62
2022-11-21T01:07:42.957Z,99513.93
2022-11-21T01:08:43.782Z,99514.45
2022-11-21T01:09:42.843Z,99516.28
2022-11-21T01:10:42.861Z,99512.4
2022-11-21T01:11:42.931Z,99508.77
2022-11-21T01:12:42.903Z,99502.34
2022-11-21T01:13:43.046Z,99505.36
2022-11-21T01:14:43.004Z,99510.29
2022-11-21T01:15:42.963Z,99508.23
2022-11-21T01:16:43.017Z,99516.06
2022-11-21T01:17:42.989Z,99512.83
2022-11-21T01:18:43.275Z,99510.4
2022-11-21T01:19:43.041Z,99505.91
2022-11-21T01:20:43.037Z,99505.79
2022-11-21T01:21:43.202Z,99505.14
2022-11-21T01:22:43.080Z,99497.62
2022-11-21T01:23:43.741Z,99499.91
2022-11-21T01:24:43.128Z,99497.5
2022-11-21T01:25:43.105Z,99500.34
2022-11-21T01:26:43.130Z,99503.11
2022-11-21T01:27:43.129Z,99493.27
2022-11-21T01:28:43.280Z,99499.28
2022-11-21T01:29:43.192Z,99501.64
2022-11-21T01:30:43.183Z,99493.42
2022-11-21T01:31:43.182Z,99496.48
2022-11-21T01:32:43.214Z,99493.52
2022-11-21T01:33:43.680Z,99500.73
2022-11-21T01:34:43.550Z,99502.5
2022-11-21T01:35:43.261Z,99497.08
2022-11-21T01:36:43.287Z,99499.82
2022-11-21T01:37:46.105Z,99494.59
2022-11-21T01:38:47.087Z,99483.65
2022-11-21T01:39:43.415Z,99474.01
2022-11-21T01:40:43.372Z,99477.2
2022-11-21T01:41:45.106Z,99481.39
2022-11-21T01:43:48.409Z,99480.28
2022-11-21T01:44:49.835Z,99490
2022-11-21T01:46:50.548Z,99480.35
2022-11-21T01:47:49.938Z,99482.94
2022-11-21T01:49:51.755Z,99477.25
2022-11-21T01:50:50.767Z,99481.66
2022-11-21T01:51:54.066Z,99478.85
2022-11-21T01:52:50.656Z,99483.23
2022-11-21T01:54:55.891Z,99473.3
2022-11-21T01:55:53.448Z,99475.89
2022-11-21T01:57:56.558Z,99474.92
2022-11-21T01:58:59.346Z,99477.41
2022-11-21T02:00:00.179Z,99475.73
2022-11-21T02:00:56.919Z,99473.91
2022-11-21T02:01:57.946Z,99475.14
2022-11-21T02:02:59.257Z,99469.27
2022-11-21T02:03:57.768Z,99464.5
2022-11-21T02:04:57.632Z,99469.97
2022-11-21T02:05:57.286Z,99468.69
2022-11-21T02:06:57.448Z,99469.37
2022-11-21T02:07:58.567Z,99473.69
2022-11-21T02:08:58.167Z,99469.38
2022-11-21T02:09:58.683Z,99461.89
2022-11-21T02:11:06.218Z,99461.09
2022-11-21T02:12:00.973Z,99461.95
2022-11-21T02:12:58.555Z,99462.22
2022-11-21T02:13:59.212Z,99462.91
2022-11-21T02:15:03.667Z,99458.11
2022-11-21T02:16:00.564Z,99455.41
2022-11-21T02:17:02.674Z,99456.23
2022-11-21T02:18:00.325Z,99452.95
2022-11-21T02:19:00.506Z,99451.34
2022-11-21T02:20:04.968Z,99452.25
2022-11-21T02:21:13.329Z,99450.84
2022-11-21T02:22:10.414Z,99446.17
2022-11-21T02:23:14.622Z,99446.53
2022-11-21T02:24:22.586Z,99439.06
2022-11-21T02:25:17.330Z,99438.2
2022-11-21T02:26:14.290Z,99436.53
2022-11-21T02:27:14.537Z,99436.97
2022-11-21T02:28:15.603Z,99430.68
2022-11-21T02:29:15.618Z,99427.54
2022-11-21T02:30:14.993Z,99427.55
2022-11-21T02:31:14.339Z,99428.09
2022-11-21T02:32:23.536Z,99425.94
2022-11-21T02:33:15.237Z,99433.21
2022-11-21T02:34:15.397Z,99429.98
2022-11-21T02:35:16.464Z,99431.53
2022-11-21T02:37:19.546Z,99421.58
2022-11-21T02:38:28.121Z,99421.69
2022-11-21T02:39:23.439Z,99425.34
2022-11-21T02:40:23.608Z,99424.42
2022-11-21T02:41:22.431Z,99422.32
2022-11-21T02:43:26.018Z,99419.38
2022-11-21T02:44:26.418Z,99421.57
2022-11-21T02:45:26.781Z,99422.38
2022-11-21T02:46:23.001Z,99426.03
2022-11-21T02:47:23.309Z,99417.54
2022-11-21T02:48:23.045Z,99411.35
2022-11-21T02:50:27.924Z,99423.72
2022-11-21T02:51:26.111Z,99424.11
2022-11-21T02:52:26.155Z,99425.23
2022-11-21T02:53:26.167Z,99427.77
2022-11-21T02:54:26.685Z,99422.44
2022-11-21T02:55:26.570Z,99418.61
2022-11-21T02:56:26.214Z,99411.33
2022-11-21T02:57:26.243Z,99417
2022-11-21T02:58:26.264Z,99414.42
2022-11-21T02:59:26.265Z,99416.95
2022-11-21T03:00:26.286Z,99424.7
2022-11-21T03:01:26.346Z,99424.97
2022-11-21T03:02:26.320Z,99423.41
2022-11-21T03:03:26.298Z,99429.42
2022-11-21T03:04:27.014Z,99427.7
2022-11-21T03:05:26.526Z,99420.59
2022-11-21T03:06:26.378Z,99424.53
2022-11-21T03:07:26.427Z,99419.58
2022-11-21T03:08:26.392Z,99423.3
2022-11-21T03:09:26.369Z,99425.49
2022-11-21T03:10:26.393Z,99420.38
2022-11-21T03:11:26.457Z,99420.05
2022-11-21T03:12:26.414Z,99419.67
2022-11-21T03:13:26.411Z,99418.77
2022-11-21T03:14:26.702Z,99417.95
2022-11-21T03:15:27.207Z,99419.67
2022-11-21T03:16:26.624Z,99415.84
2022-11-21T03:17:26.509Z,99423.22
2022-11-21T03:18:26.494Z,99424.58
2022-11-21T03:19:26.513Z,99416.39
2022-11-21T03:20:26.528Z,99416.19
2022-11-21T03:21:26.553Z,99419.25
2022-11-21T03:22:26.630Z,99418.77
2022-11-21T03:23:26.567Z,99423.17
2022-11-21T03:24:27.063Z,99419.77
2022-11-21T03:25:26.660Z,99424.38
2022-11-21T03:26:26.599Z,99418.83
2022-11-21T03:27:26.790Z,99422.21
2022-11-21T03:28:26.653Z,99411.76
2022-11-21T03:29:26.669Z,99414.25
2022-11-21T03:30:26.760Z,99416.99
2022-11-21T03:31:26.684Z,99419.95
2022-11-21T03:32:26.738Z,99416.83
2022-11-21T03:33:26.703Z,99411.22
2022-11-21T03:34:27.139Z,99414.66
2022-11-21T03:35:26.999Z,99414.07
2022-11-21T03:36:26.760Z,99410.64
2022-11-21T03:37:26.772Z,99410.3
2022-11-21T03:38:26.783Z,99409.29
2022-11-21T03:39:26.960Z,99411.55
2022-11-21T03:40:26.789Z,99416.5
2022-11-21T03:41:27.266Z,99412.09
2022-11-21T03:42:27.037Z,99407.12
2022-11-21T03:43:26.823Z,99411.86
2022-11-21T03:44:27.224Z,99410.34
2022-11-21T03:45:26.859Z,99408.2
2022-11-21T03:46:27.611Z,99405.34
2022-11-21T03:47:26.890Z,99402.3
2022-11-21T03:48:26.919Z,99402.48
2022-11-21T03:49:26.921Z,99396.56
2022-11-21T03:50:26.955Z,99402.5
2022-11-21T03:51:27.223Z,99402.02
2022-11-21T03:52:26.999Z,99402.48
2022-11-21T03:53:27.002Z,99399
2022-11-21T03:54:27.416Z,99397.7
2022-11-21T03:55:27.023Z,99402.17
2022-11-21T03:56:27.037Z,99396.62
2022-11-21T03:57:27.071Z,99401.16
2022-11-21T03:58:27.062Z,99402.66
2022-11-21T03:59:27.054Z,99393.82
2022-11-21T04:00:27.114Z,99399.09
2022-11-21T04:01:28.099Z,99396.42
2022-11-21T04:02:27.130Z,99396.26
2022-11-21T04:03:27.107Z,99393.12
2022-11-21T04:04:27.422Z,99395.66
2022-11-21T04:05:27.138Z,99391.5
2022-11-21T04:06:27.175Z,99391.83
2022-11-21T04:07:27.246Z,99391.06
2022-11-21T04:08:27.537Z,99392.11
2022-11-21T04:09:27.188Z,99394.04
2022-11-21T04:10:27.209Z,99399.05
2022-11-21T04:11:27.225Z,99398.78
2022-11-21T04:12:27.258Z,99394.24
2022-11-21T04:13:27.285Z,99388.48
2022-11-21T04:14:27.596Z,99386.69
2022-11-21T04:15:27.290Z,99389.95
2022-11-21T04:16:27.294Z,99388.86
2022-11-21T04:17:27.313Z,99387.98
2022-11-21T04:18:27.339Z,99384.8
2022-11-21T04:19:27.342Z,99383.1
2022-11-21T04:20:27.346Z,99387.25
2022-11-21T04:21:27.373Z,99377.69
2022-11-21T04:22:27.433Z,99386.56
2022-11-21T04:23:27.543Z,99380.52
2022-11-21T04:24:27.814Z,99387.8
2022-11-21T04:25:27.422Z,99383.91
2022-11-21T04:26:27.413Z,99384.12
2022-11-21T04:27:27.473Z,99381.92
2022-11-21T04:28:27.454Z,99383.64
2022-11-21T04:29:27.455Z,99376.91
2022-11-21T04:30:28.137Z,99381.66
2022-11-21T04:31:27.498Z,99375.92
2022-11-21T04:32:27.506Z,99374.67
2022-11-21T04:33:27.527Z,99375.32
2022-11-21T04:34:27.840Z,99375.7
2022-11-21T04:35:27.547Z,99372.5
2022-11-21T04:36:27.614Z,99367.5
2022-11-21T04:37:27.555Z,99370.16
2022-11-21T04:38:27.691Z,99375.89
2022-11-21T04:39:27.637Z,99372.19
2022-11-21T04:40:27.647Z,99370.69
2022-11-21T04:41:27.653Z,99369.28
2022-11-21T04:42:27.642Z,99374.39
2022-11-21T04:43:27.849Z,99372.89
2022-11-21T04:44:27.927Z,99372.45
2022-11-21T04:45:27.691Z,99374.39
2022-11-21T04:46:27.682Z,99375.49
2022-11-21T04:47:27.802Z,99374.14
2022-11-21T04:48:27.781Z,99369.73
2022-11-21T04:49:27.740Z,99374.55
2022-11-21T04:50:27.758Z,99373.12
2022-11-21T04:51:27.776Z,99371.56
2022-11-21T04:52:27.785Z,99374.58
2022-11-21T04:53:27.800Z,99381.79
2022-11-21T04:54:28.039Z,99375.36
2022-11-21T04:55:29.801Z,99375.59
2022-11-21T04:56:27.837Z,99374.06
2022-11-21T04:57:28.391Z,99377.24
2022-11-21T04:58:27.850Z,99369.06
2022-11-21T04:59:28.113Z,99372.48
2022-11-21T05:00:27.866Z,99367.3
2022-11-21T05:01:27.945Z,99369.77
2022-11-21T05:02:27.902Z,99363.55
2022-11-21T05:03:27.926Z,99365.19
2022-11-21T05:04:28.317Z,99358.65
2022-11-21T05:05:28.021Z,99357.71
2022-11-21T05:06:28.095Z,99359.38
2022-11-21T05:07:27.987Z,99357.79
2022-11-21T05:08:28.002Z,99362.28
2022-11-21T05:09:27.996Z,99358.59
2022-11-21T05:10:28.102Z,99365.4
2022-11-21T05:11:28.062Z,99359.06
2022-11-21T05:12:28.053Z,99363.52
2022-11-21T05:13:28.053Z,99364.25
2022-11-21T05:14:28.453Z,99355.48
2022-11-21T05:15:28.129Z,99354.8
2022-11-21T05:16:28.093Z,99365.46
2022-11-21T05:17:28.611Z,99364.16
2022-11-21T05:18:28.258Z,99366.32
2022-11-21T05:19:28.103Z,99364.23
2022-11-21T05:20:28.294Z,99364.66
2022-11-21T05:21:28.139Z,99365.2
2022-11-21T05:22:28.235Z,99358.73
2022-11-21T05:23:28.171Z,99364.39
2022-11-21T05:24:28.543Z,99364.55
2022-11-21T05:25:28.207Z,99358.55
2022-11-21T05:26:28.241Z,99359.89
2022-11-21T05:27:28.252Z,99362.28
2022-11-21T05:28:28.254Z,99360.95
2022-11-21T05:29:28.444Z,99354.27
2022-11-21T05:30:28.528Z,99353.52
2022-11-21T05:31:28.283Z,99352.95
2022-11-21T05:32:28.284Z,99349.81
2022-11-21T05:33:28.343Z,99352.66
2022-11-21T05:34:28.784Z,99347.27
2022-11-21T05:35:28.330Z,99359.48
2022-11-21T05:36:28.462Z,99348.36
2022-11-21T05:37:28.902Z,99352.5
2022-11-21T05:38:28.907Z,99355.45
2022-11-21T05:39:28.927Z,99356.55
2022-11-21T05:40:28.926Z,99356.48
2022-11-21T05:41:28.939Z,99355.73
2022-11-21T05:42:28.948Z,99353.58
2022-11-21T05:43:28.987Z,99357.78
2022-11-21T05:44:29.199Z,99356.06
2022-11-21T05:45:28.987Z,99359.6
2022-11-21T05:46:29.085Z,99362.41
2022-11-21T05:47:29.024Z,99363.58
2022-11-21T05:48:29.046Z,99363.9
2022-11-21T05:49:29.061Z,99364.45
2022-11-21T05:50:29.051Z,99362.34
2022-11-21T05:51:29.116Z,99362.83
2022-11-21T05:52:29.068Z,99365.52
2022-11-21T05:53:29.121Z,99366.06
2022-11-21T05:54:29.379Z,99365.57
2022-11-21T05:55:29.308Z,99365.56
2022-11-21T05:56:29.408Z,99370.3
2022-11-21T05:57:29.126Z,99370.31
2022-11-21T05:58:29.158Z,99374.96
2022-11-21T05:59:29.168Z,99379.52
2022-11-21T06:00:29.217Z,99384.41
2022-11-21T06:01:29.200Z,99385.27
2022-11-21T06:02:29.231Z,99384.2
2022-11-21T06:03:30.645Z,99383.71
2022-11-21T06:04:29.663Z,99386.89
2022-11-21T06:05:29.951Z,99382.27
2022-11-21T06:06:29.501Z,99378.56
2022-11-21T06:07:29.419Z,99382.48
2022-11-21T06:08:30.394Z,99383.49
2022-11-21T06:09:29.273Z,99376.5
2022-11-21T06:10:29.321Z,99382.66
2022-11-21T06:11:29.312Z,99395.41
2022-11-21T06:12:29.337Z,99391.2
2022-11-21T06:13:29.513Z,99390.23
2022-11-21T06:14:29.602Z,99391.62
2022-11-21T06:15:29.598Z,99392.12
2022-11-21T06:16:29.564Z,99393.42
2022-11-21T06:17:29.470Z,99391.58
2022-11-21T06:18:31.733Z,99396.42
2022-11-21T06:19:29.436Z,99388.57
2022-11-21T06:20:29.419Z,99391.31
2022-11-21T06:21:29.624Z,99396.64
2022-11-21T06:22:29.541Z,99392.07
2022-11-21T06:23:29.474Z,99395.78
2022-11-21T06:24:29.968Z,99397.19
2022-11-21T06:25:29.518Z,99390.62
2022-11-21T06:26:29.558Z,99391.75
2022-11-21T06:27:29.789Z,99388.69
2022-11-21T06:28:34.322Z,99387.61
2022-11-21T06:29:30.548Z,99387.4
2022-11-21T06:30:30.576Z,99388.59
2022-11-21T06:31:30.581Z,99385.37
2022-11-21T06:33:32.726Z,99383.95
2022-11-21T06:34:32.202Z,99385.92
2022-11-21T06:35:32.757Z,99389.48
2022-11-21T06:36:32.301Z,99389.91
2022-11-21T06:37:32.247Z,99390.77
2022-11-21T06:38:32.574Z,99397.45
2022-11-21T06:39:32.270Z,99397.36
2022-11-21T06:40:32.271Z,99396.45
2022-11-21T06:41:32.273Z,99403.21
2022-11-21T06:42:33.406Z,99403
2022-11-21T06:43:33.103Z,99408.05
2022-11-21T06:44:32.750Z,99406.92
2022-11-21T06:45:32.991Z,99406.97
2022-11-21T06:46:32.785Z,99402.88
2022-11-21T06:47:35.763Z,99405.91
2022-11-21T06:48:36.047Z,99406.26
2022-11-21T06:49:32.793Z,99411.95
2022-11-21T06:50:32.864Z,99400.58
2022-11-21T06:51:32.853Z,99404.73
2022-11-21T06:52:33.133Z,99402.62
2022-11-21T06:53:33.485Z,99402.62
2022-11-21T06:54:33.459Z,99404.57
2022-11-21T06:55:32.904Z,99403.44
2022-11-21T06:56:32.923Z,99404.52
2022-11-21T06:57:32.940Z,99405.48
2022-11-21T06:58:32.958Z,99409.89
2022-11-21T06:59:33.033Z,99410.23
2022-11-21T07:00:33.014Z,99410.16
2022-11-21T07:01:33.103Z,99411.73
2022-11-21T07:02:33.002Z,99405.54
2022-11-21T07:03:33.249Z,99400.91
2022-11-21T07:04:33.052Z,99403.76
2022-11-21T07:05:33.139Z,99405.17
2022-11-21T07:06:34.077Z,99401.02
2022-11-21T07:07:33.168Z,99403.39
2022-11-21T07:08:34.749Z,99408.95
2022-11-21T07:09:34.171Z,99402.36
2022-11-21T07:10:33.107Z,99404.69
2022-11-21T07:11:34.918Z,99402.95
2022-11-21T07:12:34.099Z,99388.05
2022-11-21T07:13:33.200Z,99390.31
2022-11-21T07:14:33.176Z,99387.52
2022-11-21T07:15:33.177Z,99385.25
2022-11-21T07:16:33.505Z,99386.38
2022-11-21T07:17:33.178Z,99383.63
2022-11-21T07:18:33.747Z,99378.68
2022-11-21T07:19:36.277Z,99380.73
2022-11-21T07:20:34.741Z,99384.06
2022-11-21T07:21:35.101Z,99383.58
2022-11-21T07:22:34.702Z,99380.73
2022-11-21T07:23:35.104Z,99387.79
2022-11-21T07:24:34.836Z,99387.14
2022-11-21T07:25:36.782Z,99381.05
2022-11-21T07:26:34.768Z,99387.14
2022-11-21T07:27:34.778Z,99389.28
2022-11-21T07:28:35.469Z,99389.07
2022-11-21T07:29:34.986Z,99390.42
2022-11-21T07:30:35.412Z,99390.48
2022-11-21T07:31:34.806Z,99383.97
2022-11-21T07:32:34.848Z,99386.55
2022-11-21T07:33:34.859Z,99389.03
2022-11-21T07:34:35.053Z,99383.97
2022-11-21T07:35:35.401Z,99384.34
2022-11-21T07:36:34.880Z,99391.93
2022-11-21T07:37:38.168Z,99387.91
2022-11-21T07:38:35.267Z,99386.58
2022-11-21T07:39:34.910Z,99391.83
2022-11-21T07:40:34.947Z,99396.83
2022-11-21T07:41:34.960Z,99395.48
2022-11-21T07:42:35.012Z,99398.23
2022-11-21T07:43:34.975Z,99404.16
2022-11-21T07:44:34.970Z,99400.8
2022-11-21T07:45:34.985Z,99401.63
2022-11-21T07:46:35.044Z,99396.45
2022-11-21T07:47:35.036Z,99405.78
2022-11-21T07:48:35.044Z,99410.47
2022-11-21T07:49:35.035Z,99399.75
2022-11-21T07:50:35.427Z,99413.09
2022-11-21T07:51:35.108Z,99412.55
2022-11-21T07:52:35.095Z,99414.26
2022-11-21T07:53:35.093Z,99415.06
2022-11-21T07:54:35.100Z,99410.89
2022-11-21T07:55:39.217Z,99414.53
2022-11-21T07:56:36.975Z,99414.87
2022-11-21T07:57:36.948Z,99416.5
2022-11-21T07:58:36.983Z,99409.16
2022-11-21T07:59:36.985Z,99415.95
2022-11-21T08:00:38.385Z,99413.78
2022-11-21T08:01:41.316Z,99405.5
2022-11-21T08:02:40.374Z,99410.03
2022-11-21T08:03:40.370Z,99411
2022-11-21T08:04:40.372Z,99419.4
2022-11-21T08:05:44.073Z,99415.69
2022-11-21T08:06:41.674Z,99415.03
2022-11-21T08:07:40.546Z,99416.2
2022-11-21T08:08:40.430Z,99414.83
2022-11-21T08:09:40.732Z,99420.47
2022-11-21T08:10:45.056Z,99412.83
2022-11-21T08:11:41.743Z,99412.46
2022-11-21T08:12:41.301Z,99422.75
2022-11-21T08:13:41.281Z,99421.27
2022-11-21T08:14:41.475Z,99419.89
2022-11-21T08:15:41.604Z,99425.77
2022-11-21T08:16:41.366Z,99424.47
2022-11-21T08:17:41.406Z,99423.36
2022-11-21T08:18:41.382Z,99420.03
2022-11-21T08:19:41.397Z,99421.42
2022-11-21T08:20:41.847Z,99427.52
2022-11-21T08:21:41.424Z,99421.34
2022-11-21T08:22:42.058Z,99421.97
2022-11-21T08:23:41.434Z,99423.1
2022-11-21T08:24:41.620Z,99424.34
2022-11-21T08:25:42.037Z,99427.63
2022-11-21T08:26:41.472Z,99419.48
2022-11-21T08:27:41.543Z,99420.72
2022-11-21T08:28:41.516Z,99416.82
2022-11-21T08:29:41.515Z,99422.77
2022-11-21T08:30:41.511Z,99424.45
2022-11-21T08:31:41.998Z,99418.74
2022-11-21T08:32:41.603Z,99420.52
2022-11-21T08:33:41.557Z,99419.33
2022-11-21T08:34:41.597Z,99416.53
2022-11-21T08:35:41.568Z,99425.63
2022-11-21T08:36:41.592Z,99421.05
2022-11-21T08:37:41.637Z,99428.75
2022-11-21T08:38:41.619Z,99430.05
2022-11-21T08:39:41.630Z,99435.17
2022-11-21T08:40:41.644Z,99433.88
2022-11-21T08:41:41.692Z,99426.81
2022-11-21T08:42:41.698Z,99430.8
2022-11-21T08:43:41.784Z,99430.8
2022-11-21T08:44:41.692Z,99433.93
2022-11-21T08:45:41.741Z,99430.75
2022-11-21T08:46:41.772Z,99431.45
2022-11-21T08:47:41.802Z,99431.5
2022-11-21T08:48:41.771Z,99431.72
2022-11-21T08:49:41.770Z,99432.75
2022-11-21T08:50:41.787Z,99428.23
2022-11-21T08:51:41.789Z,99431.09
2022-11-21T08:52:41.838Z,99428.28
2022-11-21T08:53:41.831Z,99436.3
2022-11-21T08:54:41.842Z,99430.33
2022-11-21T08:55:42.158Z,99425.91
2022-11-21T08:56:41.940Z,99424.61
2022-11-21T08:57:41.917Z,99423.45
2022-11-21T08:58:41.886Z,99428.12
2022-11-21T08:59:41.878Z,99430.33
2022-11-21T09:00:41.945Z,99431.06
2022-11-21T09:01:42.199Z,99426.38
2022-11-21T09:02:41.956Z,99430.73
2022-11-21T09:03:41.951Z,99428.85
2022-11-21T09:04:41.949Z,99433.78
2022-11-21T09:05:41.955Z,99436.77
2022-11-21T09:06:41.993Z,99434.3
2022-11-21T09:07:42.110Z,99437.8
2022-11-21T09:08:42.011Z,99438.88
2022-11-21T09:09:42.038Z,99435.16
2022-11-21T09:10:42.043Z,99430.41
2022-11-21T09:11:42.077Z,99429.23
2022-11-21T09:12:42.820Z,99423.52
2022-11-21T09:13:42.094Z,99417.96
2022-11-21T09:14:42.115Z,99418.77
2022-11-21T09:15:42.112Z,99409.23
2022-11-21T09:16:42.143Z,99413.6
2022-11-21T09:17:42.193Z,99409.66
2022-11-21T09:18:42.212Z,99405.79
2022-11-21T09:19:42.211Z,99407.67
2022-11-21T09:20:43.023Z,99408.17
2022-11-21T09:21:42.211Z,99405.36
2022-11-21T09:22:42.241Z,99402.72
2022-11-21T09:23:42.547Z,99406.16
2022-11-21T09:24:42.505Z,99403.31
2022-11-21T09:25:42.892Z,99403.2
2022-11-21T09:26:42.623Z,99399.31
2022-11-21T09:27:42.362Z,99397.23
2022-11-21T09:28:42.332Z,99398.78
2022-11-21T09:29:45.773Z,99397.5
2022-11-21T09:30:44.498Z,99387.78
2022-11-21T09:31:44.606Z,99383.95
2022-11-21T09:32:44.513Z,99383.74
2022-11-21T09:33:44.573Z,99380.89
2022-11-21T09:34:44.503Z,99383.96
2022-11-21T09:35:44.893Z,99384.88
2022-11-21T09:36:44.537Z,99387.27
2022-11-21T09:37:44.574Z,99381
2022-11-21T09:38:44.587Z,99384.66
2022-11-21T09:39:47.527Z,99381.59
2022-11-21T09:40:46.071Z,99381.86
2022-11-21T09:42:57.055Z,99378.52
2022-11-21T09:43:58.491Z,99375.23
2022-11-21T09:47:58.991Z,99378.16
2022-11-21T09:49:02.702Z,99380.2
2022-11-21T09:50:02.702Z,99376.86
2022-11-21T09:51:02.037Z,99377.06
2022-11-21T09:52:00.087Z,99375.73
2022-11-21T09:53:06.706Z,99377.66
2022-11-21T09:54:11.905Z,99376.38
2022-11-21T09:55:05.628Z,99376.21
2022-11-21T09:56:07.560Z,99374.15
2022-11-21T09:57:03.987Z,99375.33
2022-11-21T09:58:05.072Z,99380.36
2022-11-21T10:01:05.715Z,99378.47
2022-11-21T10:02:14.049Z,99380.62
2022-11-21T10:03:12.034Z,99379.34
2022-11-21T10:04:10.361Z,99374.44
2022-11-21T10:05:14.296Z,99378.38
2022-11-21T10:10:23.173Z,99377.48
2022-11-21T10:13:40.076Z,99382.52
2022-11-21T10:16:44.348Z,99376.84
2022-11-21T10:25:03.259Z,99371.03
2022-11-21T10:28:17.236Z,99363.48
2022-11-21T10:31:17.076Z,99374.38
2022-11-21T10:34:21.495Z,99385.91
2022-11-21T10:35:21.873Z,99384.46
2022-11-21T10:38:27.301Z,99373.18
2022-11-21T10:42:38.801Z,99385.31
2022-11-21T10:43:45.611Z,99376.95
2022-11-21T10:44:37.292Z,99376.2
2022-11-21T10:45:37.335Z,99372.66
2022-11-21T10:46:37.639Z,99376.69
2022-11-21T10:47:37.309Z,99367.1
2022-11-21T10:48:37.328Z,99364.73
2022-11-21T10:49:37.357Z,99358.74
2022-11-21T10:52:50.270Z,99363.33
2022-11-21T10:53:47.162Z,99359.29
2022-11-21T10:56:03.079Z,99356.84
2022-11-21T10:56:50.577Z,99358.86
2022-11-21T10:57:50.782Z,99355.88
2022-11-21T10:58:51.359Z,99352.21
2022-11-21T11:00:02.395Z,99354.51
2022-11-21T11:00:57.758Z,99354.49
2022-11-21T11:01:58.695Z,99354.97
2022-11-21T11:03:00.011Z,99352.22
2022-11-21T11:05:58.451Z,99352.55
2022-11-21T11:08:01.820Z,99343.8
2022-11-21T11:09:00.181Z,99341.28
2022-11-21T11:11:05.633Z,99330.98
2022-11-21T11:14:13.564Z,99334.05
2022-11-21T11:16:18.710Z,99344.04
2022-11-21T11:17:25.447Z,99335.12
2022-11-21T11:18:23.178Z,99339.55
2022-11-21T11:19:32.909Z,99340.48
2022-11-21T11:20:35.695Z,99342.23
2022-11-21T11:21:23.845Z,99348.34
2022-11-21T11:22:28.626Z,99355.15
2022-11-21T11:23:27.451Z,99347.97
2022-11-21T11:24:26.083Z,99342.25
2022-11-21T11:25:25.400Z,99349.75
2022-11-21T11:26:27.150Z,99351.25
2022-11-21T11:27:29.218Z,99351.06
2022-11-21T11:28:27.206Z,99346.44
2022-11-21T11:29:30.315Z,99350.55
2022-11-21T11:30:27.492Z,99347.48
2022-11-21T11:31:39.190Z,99352.45
2022-11-21T11:32:30.913Z,99346.93
2022-11-21T11:33:37.833Z,99343.69
2022-11-21T11:34:39.070Z,99339.33
2022-11-21T11:35:36.406Z,99346.39
2022-11-21T11:36:42.633Z,99348
2022-11-21T11:37:41.557Z,99348.85
2022-11-21T11:38:40.123Z,99348.66
2022-11-21T11:40:43.476Z,99348.81
2022-11-21T11:47:08.405Z,99350.16
2022-11-21T11:49:20.179Z,99356.73
2022-11-21T11:50:17.561Z,99355.84
2022-11-21T11:51:13.798Z,99355.73
2022-11-21T11:52:11.430Z,99355.78
2022-11-21T11:54:19.911Z,99355.89
2022-11-21T11:55:21.865Z,99363.05
2022-11-21T11:56:24.860Z,99357.28
2022-11-21T11:57:21.980Z,99356.41
2022-11-21T11:58:29.068Z,99358.85
2022-11-21T11:59:32.807Z,99357.79
2022-11-21T12:00:41.178Z,99348.29
2022-11-21T12:01:36.424Z,99352.66
2022-11-21T12:03:43.979Z,99343.01
2022-11-21T12:04:43.477Z,99350.58
2022-11-21T12:05:45.199Z,99351.73
2022-11-21T12:08:39.534Z,99350.48
2022-11-21T12:08:48.700Z,99353.94
2022-11-21T12:13:56.339Z,99356.85
2022-11-21T12:15:04.545Z,99358.64
2022-11-21T12:16:08.606Z,99348.38
2022-11-21T12:17:04.817Z,99358.78
2022-11-21T12:19:08.596Z,99354.11
2022-11-21T12:20:11.951Z,99356.14
2022-11-21T12:21:13.158Z,99355.73
2022-11-21T12:22:10.304Z,99357.95
2022-11-21T12:23:10.092Z,99357.68
2022-11-21T12:24:10.322Z,99349.95
2022-11-21T12:25:12.585Z,99361.34
2022-11-21T12:28:23.138Z,99357.56
2022-11-21T12:33:25.148Z,99362.95
2022-11-21T12:50:20.557Z,99358.47
2022-11-21T12:55:35.412Z,99353.34
2022-11-21T12:56:32.555Z,99349.25
2022-11-21T12:59:31.091Z,99355.41
2022-11-21T13:04:40.197Z,99352.33
2022-11-21T13:05:40.566Z,99353.84
2022-11-21T13:07:40.102Z,99350.5
2022-11-21T13:08:39.712Z,99349.09
2022-11-21T13:09:41.432Z,99344.08
2022-11-21T13:10:43.174Z,99345.75
2022-11-21T13:13:44.849Z,99352.28
2022-11-21T13:14:46.335Z,99349.04
2022-11-21T13:15:53.581Z,99345.75
2022-11-21T13:16:49.521Z,99341.81
2022-11-21T13:17:55.872Z,99342.78
2022-11-21T13:18:49.583Z,99342.03
2022-11-21T13:20:52.372Z,99346.12
2022-11-21T13:21:53.213Z,99348.02
2022-11-21T13:22:53.399Z,99351.09
2022-11-21T13:23:51.856Z,99348.78
2022-11-21T13:24:55.560Z,99350.22
2022-11-21T13:25:51.908Z,99349.09
2022-11-21T13:26:53.506Z,99352.7
2022-11-21T13:27:52.415Z,99354.66
2022-11-21T13:30:58.359Z,99346.73
2022-11-21T13:31:54.637Z,99348.51
2022-11-21T13:32:54.893Z,99347
2022-11-21T13:33:54.911Z,99344.78
2022-11-21T13:34:54.654Z,99342.36
2022-11-21T13:35:57.488Z,99347.53
2022-11-21T13:36:54.688Z,99344.62
2022-11-21T13:41:07.242Z,99358.7